createdAt,value
2024-04-11T00:02:10.733Z,2.10
2024-04-11T00:04:38.179Z,2.00
2024-04-11T00:07:05.499Z,2.28
2024-04-11T00:09:32.605Z,2.17
2024-04-11T00:11:59.826Z,2.05
2024-04-11T00:14:27.163Z,1.90
2024-04-11T00:16:54.405Z,2.03
2024-04-11T00:19:21.679Z,1.90
2024-04-11T00:21:50.696Z,6.25
2024-04-11T00:24:20.749Z,2.20
2024-04-11T00:26:48.710Z,2.92
2024-04-11T00:29:15.929Z,2.25
2024-04-11T00:31:43.072Z,2.10
2024-04-11T00:34:25.236Z,2.05
2024-04-11T00:36:54.639Z,2.00
2024-04-11T00:39:22.016Z,1.98
2024-04-11T00:41:50.444Z,2.42
2024-04-11T00:44:19.378Z,1.95
2024-04-11T00:46:55.887Z,2.33
2024-04-11T00:49:24.100Z,1.98
2024-04-11T00:51:51.838Z,1.85
2024-04-11T00:54:19.390Z,1.65
2024-04-11T00:56:46.936Z,1.92
2024-04-11T00:59:16.143Z,2.05
2024-04-11T01:01:45.515Z,2.10
2024-04-11T01:04:12.894Z,1.67
2024-04-11T01:07:07.521Z,1.92
2024-04-11T01:09:37.105Z,1.83
2024-04-11T01:12:05.127Z,1.95
2024-04-11T01:14:32.940Z,1.98
2024-04-11T01:17:00.496Z,2.40
2024-04-11T01:19:28.256Z,2.03
2024-04-11T01:21:57.059Z,2.08
2024-04-11T01:24:24.134Z,2.38
2024-04-11T01:26:51.474Z,2.25
2024-04-11T01:29:18.726Z,2.15
2024-04-11T01:31:46.298Z,2.28
2024-04-11T01:34:13.692Z,2.28
2024-04-11T01:36:40.945Z,2.00
2024-04-11T01:39:10.780Z,2.28
2024-04-11T01:41:40.845Z,2.25
2024-04-11T01:44:08.119Z,2.38
2024-04-11T01:46:35.213Z,2.17
2024-04-11T01:49:02.597Z,2.08
2024-04-11T01:51:29.838Z,2.28
2024-04-11T01:53:57.390Z,2.25
2024-04-11T01:56:27.441Z,2.13
2024-04-11T01:58:54.895Z,2.15
2024-04-11T02:01:22.074Z,2.22
2024-04-11T02:03:49.978Z,2.30
2024-04-11T02:06:17.155Z,2.03
2024-04-11T02:08:44.368Z,2.45
2024-04-11T02:11:13.185Z,2.08
2024-04-11T02:13:40.414Z,2.38
2024-04-11T02:16:08.086Z,2.35
2024-04-11T02:18:35.437Z,1.90
2024-04-11T02:21:02.666Z,1.90
2024-04-11T02:23:31.650Z,2.33
2024-04-11T02:25:58.836Z,1.90
2024-04-11T02:28:25.913Z,2.35
2024-04-11T02:30:55.414Z,2.38
2024-04-11T02:33:31.448Z,2.13
2024-04-11T02:35:59.021Z,2.50
2024-04-11T02:38:29.026Z,2.53
2024-04-11T02:40:56.379Z,2.15
2024-04-11T02:43:24.162Z,2.60
2024-04-11T02:45:51.683Z,2.53
2024-04-11T02:48:22.544Z,2.40
2024-04-11T02:50:51.034Z,1.58
2024-04-11T02:53:18.810Z,2.50
2024-04-11T02:55:45.945Z,2.53
2024-04-11T02:58:13.019Z,2.15
2024-04-11T03:00:40.161Z,2.17
2024-04-11T03:03:09.206Z,2.60
2024-04-11T03:05:37.767Z,2.28
2024-04-11T03:08:08.070Z,2.38
2024-04-11T03:10:35.370Z,2.40
2024-04-11T03:13:02.582Z,2.20
2024-04-11T03:15:32.247Z,2.00
2024-04-11T03:17:59.836Z,2.60
2024-04-11T03:20:27.076Z,2.25
2024-04-11T03:22:54.246Z,2.75
2024-04-11T03:25:21.474Z,2.20
2024-04-11T03:27:48.609Z,2.13
2024-04-11T03:30:15.827Z,2.33
2024-04-11T03:32:43.106Z,2.40
2024-04-11T03:35:10.922Z,3.00
2024-04-11T03:37:38.110Z,2.40
2024-04-11T03:40:05.599Z,2.53
2024-04-11T03:42:33.040Z,2.33
2024-04-11T03:45:12.681Z,2.30
2024-04-11T03:47:40.225Z,2.55
2024-04-11T03:50:07.623Z,2.28
2024-04-11T03:52:34.782Z,2.60
2024-04-11T03:55:02.973Z,2.70
2024-04-11T03:57:30.045Z,2.50
2024-04-11T03:59:57.706Z,2.90
2024-04-11T04:02:24.975Z,2.22
2024-04-11T04:04:52.262Z,2.42
2024-04-11T04:07:19.420Z,2.55
2024-04-11T04:09:46.536Z,2.50
2024-04-11T04:12:13.764Z,2.53
2024-04-11T04:14:41.037Z,3.20
2024-04-11T04:17:08.190Z,2.70
2024-04-11T04:19:35.398Z,3.00
2024-04-11T04:22:02.566Z,2.63
2024-04-11T04:24:29.621Z,2.80
2024-04-11T04:26:58.475Z,2.22
2024-04-11T04:29:27.513Z,2.45
2024-04-11T04:31:54.592Z,2.70
2024-04-11T04:34:22.629Z,8.80
2024-04-11T04:36:51.189Z,7.82
2024-04-11T04:39:18.485Z,7.10
2024-04-11T04:41:46.628Z,5.63
2024-04-11T04:44:14.069Z,4.68
2024-04-11T04:46:41.128Z,3.20
2024-04-11T04:49:12.404Z,2.55
2024-04-11T04:51:40.997Z,2.80
2024-04-11T04:54:13.843Z,2.40
2024-04-11T04:56:44.111Z,2.38
2024-04-11T04:59:12.038Z,2.50
2024-04-11T05:01:42.721Z,2.30
2024-04-11T05:04:16.670Z,2.80
2024-04-11T05:06:45.281Z,2.55
2024-04-11T05:09:12.502Z,2.60
2024-04-11T05:11:40.924Z,2.67
2024-04-11T05:14:10.899Z,3.08
2024-04-11T05:16:38.623Z,3.28
2024-04-11T05:19:06.126Z,2.70
2024-04-11T05:21:34.963Z,2.25
2024-04-11T05:24:03.178Z,2.55
2024-04-11T05:26:32.005Z,2.45
2024-04-11T05:28:59.858Z,2.72
2024-04-11T05:31:27.934Z,2.53
2024-04-11T05:33:57.539Z,2.50
2024-04-11T05:36:30.901Z,2.72
2024-04-11T05:38:59.094Z,2.78
2024-04-11T05:41:27.578Z,2.67
2024-04-11T05:44:00.145Z,2.58
2024-04-11T05:46:27.363Z,2.30
2024-04-11T05:48:55.225Z,2.70
2024-04-11T05:51:23.611Z,2.35
2024-04-11T05:53:51.587Z,2.30
2024-04-11T05:56:22.087Z,2.67
2024-04-11T05:58:52.174Z,2.38
2024-04-11T06:01:19.565Z,2.80
2024-04-11T06:03:48.613Z,2.78
2024-04-11T06:06:17.009Z,3.08
2024-04-11T06:08:45.293Z,3.45
2024-04-11T06:11:13.102Z,3.13
2024-04-11T06:13:40.833Z,2.90
2024-04-11T06:16:08.479Z,3.17
2024-04-11T06:18:38.604Z,2.30
2024-04-11T06:21:11.586Z,2.55
2024-04-11T06:23:39.126Z,2.88
2024-04-11T06:26:18.987Z,2.35
2024-04-11T06:28:48.999Z,2.60
2024-04-11T06:31:16.936Z,2.50
2024-04-11T06:33:44.823Z,2.03
2024-04-11T06:36:13.185Z,2.10
2024-04-11T06:38:41.559Z,2.30
2024-04-11T06:41:10.750Z,2.25
2024-04-11T06:43:43.084Z,2.30
2024-04-11T06:46:12.473Z,2.38
2024-04-11T06:48:41.392Z,2.58
2024-04-11T06:51:11.157Z,2.40
2024-04-11T06:53:40.921Z,1.90
2024-04-11T06:56:10.093Z,2.15
2024-04-11T06:58:38.827Z,2.47
2024-04-11T07:01:10.851Z,1.90
2024-04-11T07:03:42.767Z,1.70
2024-04-11T07:06:12.059Z,1.83
2024-04-11T07:08:44.689Z,2.25
2024-04-11T07:11:21.834Z,1.85
2024-04-11T07:13:51.442Z,1.88
2024-04-11T07:16:21.968Z,1.85
2024-04-11T07:18:56.676Z,1.60
2024-04-11T07:21:32.217Z,1.90
2024-04-11T07:24:00.420Z,1.50
2024-04-11T07:26:31.912Z,1.90
2024-04-11T07:29:01.505Z,1.80
2024-04-11T07:31:29.917Z,1.90
2024-04-11T07:34:03.039Z,1.85
2024-04-11T07:36:40.434Z,1.70
2024-04-11T07:39:10.618Z,1.63
2024-04-11T07:41:48.012Z,1.63
2024-04-11T07:44:25.433Z,1.90
2024-04-11T07:47:06.106Z,2.28
2024-04-11T07:49:48.556Z,1.73
2024-04-11T07:52:15.991Z,1.58
2024-04-11T07:54:47.904Z,1.75
2024-04-11T07:57:21.564Z,1.75
2024-04-11T07:59:48.953Z,1.25
2024-04-11T08:02:16.747Z,1.55
2024-04-11T08:04:44.027Z,1.30
2024-04-11T08:07:11.273Z,1.50
2024-04-11T08:09:47.648Z,1.20
2024-04-11T08:12:16.418Z,1.52
2024-04-11T08:14:44.136Z,1.40
2024-04-11T08:17:16.207Z,1.58
2024-04-11T08:19:52.046Z,1.60
2024-04-11T08:22:25.955Z,1.38
2024-04-11T08:24:53.289Z,1.35
2024-04-11T08:27:21.869Z,1.35
2024-04-11T08:29:49.472Z,1.23
2024-04-11T08:32:16.722Z,1.23
2024-04-11T08:34:43.961Z,1.40
2024-04-11T08:37:12.994Z,1.05
2024-04-11T08:39:40.161Z,1.30
2024-04-11T08:42:10.594Z,1.30
2024-04-11T08:44:38.516Z,1.40
2024-04-11T08:47:07.830Z,1.10
2024-04-11T08:49:35.483Z,1.45
2024-04-11T08:52:06.958Z,1.50
2024-04-11T08:54:37.957Z,1.48
2024-04-11T08:59:32.681Z,1.10
2024-04-11T09:01:59.961Z,1.50
2024-04-11T09:04:27.263Z,1.27
2024-04-11T09:06:55.912Z,1.50
2024-04-11T09:09:25.038Z,1.23
2024-04-11T09:11:53.820Z,1.50
2024-04-11T09:14:22.400Z,1.60
2024-04-11T09:17:02.792Z,1.17
2024-04-11T09:19:33.842Z,1.08
2024-04-11T09:22:01.331Z,1.30
2024-04-11T09:24:30.744Z,1.10
2024-04-11T09:27:01.113Z,1.20
2024-04-11T09:29:28.485Z,1.40
2024-04-11T09:32:01.156Z,1.10
2024-04-11T09:34:32.369Z,1.45
2024-04-11T09:37:01.132Z,1.30
2024-04-11T09:39:48.787Z,1.10
2024-04-11T09:42:20.724Z,1.20
2024-04-11T09:44:55.260Z,1.23
2024-04-11T09:47:33.555Z,1.77
2024-04-11T09:50:07.236Z,1.42
2024-04-11T09:52:43.053Z,1.50
2024-04-11T09:55:10.820Z,1.65
2024-04-11T09:57:40.085Z,1.27
2024-04-11T10:00:20.019Z,1.27
2024-04-11T10:02:54.881Z,1.23
2024-04-11T10:05:24.937Z,1.67
2024-04-11T10:07:59.863Z,1.67
2024-04-11T10:10:35.435Z,1.40
2024-04-11T10:13:05.653Z,1.23
2024-04-11T10:15:39.156Z,1.67
2024-04-11T10:18:13.036Z,1.38
2024-04-11T10:21:01.195Z,1.40
2024-04-11T10:23:30.850Z,1.50
2024-04-11T10:25:58.194Z,1.25
2024-04-11T10:28:40.777Z,1.25
2024-04-11T10:31:13.015Z,1.40
2024-04-11T10:33:55.186Z,1.70
2024-04-11T10:36:23.228Z,1.30
2024-04-11T10:38:59.578Z,1.70
2024-04-11T10:41:28.104Z,1.30
2024-04-11T10:43:57.298Z,1.40
2024-04-11T10:46:25.614Z,1.70
2024-04-11T10:48:57.767Z,1.70
2024-04-11T10:51:29.501Z,1.30
2024-04-11T10:54:12.535Z,1.65
2024-04-11T10:56:45.300Z,1.70
2024-04-11T10:59:28.671Z,1.20
2024-04-11T11:02:10.478Z,1.70
2024-04-11T11:04:45.299Z,1.38
2024-04-11T11:07:12.969Z,1.60
2024-04-11T11:09:47.811Z,1.45
2024-04-11T11:12:17.833Z,1.38
2024-04-11T11:14:45.466Z,1.70
2024-04-11T11:17:19.511Z,1.35
2024-04-11T11:19:52.370Z,1.70
2024-04-11T11:22:35.738Z,1.58
2024-04-11T11:25:04.587Z,1.80
2024-04-11T11:27:34.970Z,1.80
2024-04-11T11:30:08.116Z,1.73
2024-04-11T11:32:38.694Z,1.48
2024-04-11T11:35:07.287Z,1.57
2024-04-11T11:37:34.586Z,2.00
2024-04-11T11:40:20.498Z,1.63
2024-04-11T11:42:49.301Z,1.58
2024-04-11T11:45:29.025Z,2.00
2024-04-11T11:47:59.579Z,2.00
2024-04-11T11:50:37.608Z,2.30
2024-04-11T11:53:25.546Z,1.70
2024-04-11T11:58:32.129Z,1.77
2024-04-11T12:01:03.747Z,1.97
2024-04-11T12:03:35.225Z,1.75
2024-04-11T12:06:06.889Z,1.80
2024-04-11T12:08:39.853Z,1.45
2024-04-11T12:11:07.521Z,1.75
2024-04-11T12:13:47.103Z,1.42
2024-04-11T12:16:18.185Z,1.50
2024-04-11T12:18:49.708Z,1.40
2024-04-11T12:21:28.391Z,1.48
2024-04-11T12:23:58.353Z,1.33
2024-04-11T12:26:28.516Z,1.52
2024-04-11T12:28:58.031Z,1.50
2024-04-11T12:31:28.498Z,1.05
2024-04-11T12:33:58.554Z,1.40
2024-04-11T12:36:44.221Z,1.40
2024-04-11T12:39:15.008Z,1.58
2024-04-11T12:41:43.631Z,1.70
2024-04-11T12:44:14.033Z,1.55
2024-04-11T12:46:54.908Z,2.30
2024-04-11T12:49:28.394Z,2.05
2024-04-11T12:51:57.348Z,1.77
2024-04-11T12:54:32.971Z,1.73
2024-04-11T12:57:07.566Z,2.10
2024-04-11T12:59:37.740Z,1.65
2024-04-11T13:02:10.931Z,1.80
2024-04-11T13:04:39.865Z,1.90
2024-04-11T13:07:14.323Z,2.00
2024-04-11T13:10:09.959Z,2.28
2024-04-11T13:12:37.921Z,2.17
2024-04-11T13:15:13.216Z,2.08
2024-04-11T13:17:43.850Z,2.50
2024-04-11T13:20:16.026Z,2.58
2024-04-11T13:22:50.689Z,1.75
2024-04-11T13:25:22.842Z,2.20
2024-04-11T13:27:54.816Z,2.50
2024-04-11T13:30:22.965Z,2.35
2024-04-11T13:33:01.572Z,2.80
2024-04-11T13:35:51.112Z,2.50
2024-04-11T13:38:22.716Z,2.40
2024-04-11T13:41:10.484Z,2.50
2024-04-11T13:43:44.101Z,2.78
2024-04-11T13:46:12.411Z,2.78
2024-04-11T13:48:51.749Z,2.90
2024-04-11T13:51:26.354Z,3.20
2024-04-11T13:53:58.995Z,3.00
2024-04-11T13:56:40.463Z,2.63
2024-04-11T13:59:10.771Z,3.30
2024-04-11T14:01:45.005Z,2.90
2024-04-11T14:04:32.470Z,3.20
2024-04-11T14:07:05.048Z,3.33
2024-04-11T14:09:37.794Z,3.10
2024-04-11T14:12:05.429Z,3.53
2024-04-11T14:14:36.333Z,2.80
2024-04-11T14:17:14.994Z,2.58
2024-04-11T14:19:53.985Z,2.95
2024-04-11T14:22:21.807Z,2.80
2024-04-11T14:25:10.464Z,3.33
2024-04-11T14:27:40.424Z,2.53
2024-04-11T14:30:08.465Z,3.17
2024-04-11T14:33:05.089Z,2.30
2024-04-11T14:35:50.697Z,2.70
2024-04-11T14:38:21.097Z,2.63
2024-04-11T14:40:48.355Z,2.03
2024-04-11T14:43:22.503Z,2.63
2024-04-11T14:45:49.871Z,2.30
2024-04-11T14:48:21.089Z,2.05
2024-04-11T14:50:57.626Z,1.95
2024-04-11T14:53:26.304Z,2.00
2024-04-11T14:55:57.952Z,2.17
2024-04-11T14:58:32.568Z,2.20
2024-04-11T15:01:16.359Z,1.95
2024-04-11T15:03:47.096Z,2.83
2024-04-11T15:06:17.763Z,2.30
2024-04-11T15:08:50.145Z,2.83
2024-04-11T15:11:24.769Z,2.50
2024-04-11T15:13:55.128Z,2.90
2024-04-11T15:16:40.686Z,2.63
2024-04-11T15:19:10.072Z,3.08
2024-04-11T15:21:37.676Z,3.17
2024-04-11T15:24:14.890Z,2.95
2024-04-11T15:26:56.001Z,3.17
2024-04-11T15:32:24.393Z,4.30
2024-04-11T15:34:54.992Z,4.35
2024-04-11T15:37:31.401Z,4.73
2024-04-11T15:40:03.003Z,4.38
2024-04-11T15:42:36.156Z,4.10
2024-04-11T15:45:07.082Z,3.75
2024-04-11T15:47:35.012Z,4.47
2024-04-11T15:50:07.435Z,3.97
2024-04-11T15:52:38.323Z,3.80
2024-04-11T15:55:14.588Z,3.75
2024-04-11T15:57:41.907Z,3.55
2024-04-11T16:00:13.513Z,3.35
2024-04-11T16:02:45.592Z,3.60
2024-04-11T16:05:36.093Z,3.22
2024-04-11T16:08:12.214Z,2.90
2024-04-11T16:10:48.550Z,3.22
2024-04-11T16:13:15.858Z,3.20
2024-04-11T16:15:45.528Z,2.75
2024-04-11T16:18:18.507Z,2.95
2024-04-11T16:20:48.899Z,2.45
2024-04-11T16:23:17.950Z,2.70
2024-04-11T16:25:45.517Z,2.17
2024-04-11T16:28:17.289Z,2.53
2024-04-11T16:31:05.124Z,2.40
2024-04-11T16:33:35.675Z,2.15
2024-04-11T16:36:05.309Z,2.38
2024-04-11T16:39:03.563Z,2.10
2024-04-11T16:41:41.301Z,2.60
2024-04-11T16:44:12.762Z,2.10
2024-04-11T16:46:53.087Z,2.10
2024-04-11T16:49:37.022Z,2.58
2024-04-11T16:52:09.625Z,2.40
2024-04-11T16:54:47.204Z,1.90
2024-04-11T16:57:15.057Z,2.10
2024-04-11T16:59:43.384Z,2.28
2024-04-11T17:02:13.561Z,1.80
2024-04-11T17:04:51.418Z,2.00
2024-04-11T17:07:26.494Z,1.77
2024-04-11T17:09:59.388Z,2.00
2024-04-11T17:12:33.410Z,1.70
2024-04-11T17:15:01.728Z,2.20
2024-04-11T17:17:38.192Z,2.28
2024-04-11T17:20:21.423Z,2.50
2024-04-11T17:23:10.613Z,2.40
2024-04-11T17:25:40.709Z,2.78
2024-04-11T17:28:18.434Z,3.20
2024-04-11T17:30:57.666Z,3.08
2024-04-11T17:33:35.191Z,2.53
2024-04-11T17:36:24.228Z,2.28
2024-04-11T17:39:05.298Z,2.40
2024-04-11T17:41:40.491Z,2.95
2024-04-11T17:44:17.145Z,2.35
2024-04-11T17:47:04.162Z,2.50
2024-04-11T17:49:41.178Z,2.30
2024-04-11T17:52:25.646Z,2.45
2024-04-11T17:54:53.115Z,3.00
2024-04-11T17:57:21.748Z,3.30
2024-04-11T17:59:49.877Z,2.40
2024-04-11T18:02:23.040Z,1.98
2024-04-11T18:04:53.225Z,2.25
2024-04-11T18:07:26.570Z,2.10
2024-04-11T18:09:55.210Z,2.92
2024-04-11T18:12:23.469Z,2.03
2024-04-11T18:14:51.000Z,2.30
2024-04-11T18:17:23.701Z,1.95
2024-04-11T18:19:57.901Z,2.25
2024-04-11T18:22:25.179Z,2.33
2024-04-11T18:24:59.849Z,2.30
2024-04-11T18:27:27.138Z,2.28
2024-04-11T18:29:59.096Z,2.22
2024-04-11T18:32:32.737Z,2.50
2024-04-11T18:35:03.544Z,1.90
2024-04-11T18:37:33.438Z,1.95
2024-04-11T18:40:20.500Z,1.95
2024-04-11T18:42:48.377Z,2.40
2024-04-11T18:45:25.689Z,2.30
2024-04-11T18:47:58.527Z,2.40
2024-04-11T18:50:27.315Z,2.55
2024-04-11T18:53:04.506Z,2.30
2024-04-11T18:55:51.354Z,2.53
2024-04-11T18:58:18.798Z,2.10
2024-04-11T19:00:46.869Z,1.95
2024-04-11T19:03:18.498Z,2.63
2024-04-11T19:05:53.429Z,2.58
2024-04-11T19:08:29.697Z,2.22
2024-04-11T19:10:57.601Z,2.00
2024-04-11T19:13:28.156Z,1.98
2024-04-11T19:16:07.291Z,2.03
2024-04-11T19:18:50.467Z,2.17
2024-04-11T19:21:37.752Z,1.75
2024-04-11T19:24:08.424Z,1.88
2024-04-11T19:26:41.358Z,1.70
2024-04-11T19:29:09.691Z,1.80
2024-04-11T19:31:48.270Z,1.75
2024-04-11T19:34:26.576Z,2.00
2024-04-11T19:36:59.410Z,1.80
2024-04-11T19:39:33.499Z,1.90
2024-04-11T19:42:03.149Z,1.58
2024-04-11T19:44:32.399Z,1.73
2024-04-11T19:47:00.726Z,1.85
2024-04-11T19:49:29.909Z,1.83
2024-04-11T19:51:59.698Z,1.90
2024-04-11T19:54:27.210Z,1.90
2024-04-11T19:57:06.314Z,1.70
2024-04-11T19:59:34.086Z,1.92
2024-04-11T20:02:11.045Z,2.00
2024-04-11T20:04:38.480Z,1.83
2024-04-11T20:07:07.799Z,1.67
2024-04-11T20:09:40.444Z,1.88
2024-04-11T20:12:18.355Z,1.73
2024-04-11T20:14:52.238Z,2.03
2024-04-11T20:17:31.262Z,2.25
2024-04-11T20:20:02.686Z,2.10
2024-04-11T20:22:37.826Z,2.38
2024-04-11T20:25:10.821Z,2.35
2024-04-11T20:27:43.776Z,2.40
2024-04-11T20:30:21.577Z,2.70
2024-04-11T20:32:51.229Z,2.60
2024-04-11T20:35:30.917Z,2.60
2024-04-11T20:38:02.073Z,3.00
2024-04-11T20:40:37.153Z,3.50
2024-04-11T20:43:05.318Z,3.65
2024-04-11T20:45:36.812Z,3.72
2024-04-11T20:48:17.654Z,3.60
2024-04-11T20:53:50.554Z,4.55
2024-04-11T20:56:36.752Z,4.40
2024-04-11T20:59:22.843Z,4.30
2024-04-11T21:02:08.491Z,5.05
2024-04-11T21:04:54.629Z,4.72
2024-04-11T21:07:40.394Z,5.15
2024-04-11T21:10:26.552Z,5.20
2024-04-11T21:13:12.781Z,5.05
2024-04-11T21:15:58.713Z,5.25
2024-04-11T21:18:44.724Z,5.40
2024-04-11T21:21:30.435Z,5.22
2024-04-11T21:24:20.407Z,5.78
2024-04-11T21:27:06.347Z,6.15
2024-04-11T21:29:52.430Z,5.88
2024-04-11T21:32:38.103Z,5.70
2024-04-11T21:35:09.471Z,5.25
2024-04-11T21:37:37.574Z,6.00
2024-04-11T21:40:14.922Z,6.18
2024-04-11T21:42:42.874Z,6.05
2024-04-11T21:45:13.689Z,6.30
2024-04-11T21:47:41.435Z,6.55
2024-04-11T21:50:13.367Z,6.55
2024-04-11T21:52:40.502Z,6.72
2024-04-11T21:55:12.829Z,6.30
2024-04-11T21:57:44.131Z,6.95
2024-04-11T22:02:55.105Z,6.60
2024-04-11T22:05:25.099Z,6.32
2024-04-11T22:08:00.495Z,7.38
2024-04-11T22:10:30.128Z,7.22
2024-04-11T22:13:00.183Z,6.93
2024-04-11T22:15:38.231Z,7.18
2024-04-11T22:18:25.951Z,7.30
2024-04-11T22:21:07.297Z,7.68
2024-04-11T22:23:35.566Z,7.50
2024-04-11T22:26:07.907Z,8.05
2024-04-11T22:28:36.425Z,7.75
2024-04-11T22:31:08.023Z,7.82
2024-04-11T22:33:39.987Z,7.57
2024-04-11T22:36:29.351Z,8.23
2024-04-11T22:39:02.344Z,7.88
2024-04-11T22:41:31.864Z,7.40
2024-04-11T22:43:59.965Z,7.88
2024-04-11T22:46:37.215Z,8.55
2024-04-11T22:49:23.026Z,8.52
2024-04-11T22:51:56.321Z,8.35
2024-04-11T22:54:24.505Z,8.05
2024-04-11T22:57:00.176Z,9.18
2024-04-11T22:59:31.665Z,8.70
2024-04-11T23:04:50.241Z,8.02
2024-04-11T23:07:37.102Z,8.30
2024-04-11T23:10:21.902Z,7.97
2024-04-11T23:12:53.803Z,8.60
2024-04-11T23:15:25.537Z,8.35
2024-04-11T23:17:57.148Z,8.85
2024-04-11T23:20:29.142Z,8.02
2024-04-11T23:23:00.425Z,8.00
2024-04-11T23:25:29.316Z,7.65
2024-04-11T23:27:57.780Z,7.47
2024-04-11T23:30:39.146Z,7.72
2024-04-11T23:33:22.624Z,7.55
2024-04-11T23:36:08.364Z,7.40
2024-04-11T23:38:42.248Z,7.18
2024-04-11T23:41:11.102Z,7.10
2024-04-11T23:43:49.966Z,6.88
2024-04-11T23:46:29.877Z,7.88
2024-04-11T23:49:09.986Z,7.20
2024-04-11T23:51:48.614Z,6.47
2024-04-11T23:54:22.575Z,6.70
2024-04-11T23:57:03.278Z,7.20
2024-04-11T23:59:40.843Z,6.53
